sensor_id;sensor_type;location;lat;lon;timestamp;temperature;humidity
66190;DHT22;52992;52.084;5.412;2022-10-17T00:00:07;19.20;62.40
66190;DHT22;52992;52.084;5.412;2022-10-17T00:02:35;19.20;62.50
66190;DHT22;52992;52.084;5.412;2022-10-17T00:05:01;19.20;62.60
66190;DHT22;52992;52.084;5.412;2022-10-17T00:07:29;19.20;62.60
66190;DHT22;52992;52.084;5.412;2022-10-17T00:09:56;19.10;62.50
66190;DHT22;52992;52.084;5.412;2022-10-17T00:12:23;19.10;62.60
66190;DHT22;52992;52.084;5.412;2022-10-17T00:14:50;19.10;62.60
66190;DHT22;52992;52.084;5.412;2022-10-17T00:17:17;19.10;62.60
66190;DHT22;52992;52.084;5.412;2022-10-17T00:19:44;19.10;62.60
66190;DHT22;52992;52.084;5.412;2022-10-17T00:22:11;19.10;62.60
66190;DHT22;52992;52.084;5.412;2022-10-17T00:24:38;19.10;62.60
66190;DHT22;52992;52.084;5.412;2022-10-17T00:27:05;19.10;62.70
66190;DHT22;52992;52.084;5.412;2022-10-17T00:29:31;19.10;62.70
66190;DHT22;52992;52.084;5.412;2022-10-17T00:31:58;19.00;62.50
66190;DHT22;52992;52.084;5.412;2022-10-17T00:34:28;19.10;62.70
66190;DHT22;52992;52.084;5.412;2022-10-17T00:36:55;19.00;62.60
66190;DHT22;52992;52.084;5.412;2022-10-17T00:39:23;19.10;62.70
66190;DHT22;52992;52.084;5.412;2022-10-17T00:41:50;19.00;62.60
66190;DHT22;52992;52.084;5.412;2022-10-17T00:47:03;19.00;62.70
66190;DHT22;52992;52.084;5.412;2022-10-17T00:49:35;19.10;62.80
66190;DHT22;52992;52.084;5.412;2022-10-17T00:52:07;19.10;62.80
66190;DHT22;52992;52.084;5.412;2022-10-17T00:54:40;19.10;62.80
66190;DHT22;52992;52.084;5.412;2022-10-17T00:57:08;19.00;62.80
66190;DHT22;52992;52.084;5.412;2022-10-17T00:59:39;19.10;63.00
66190;DHT22;52992;52.084;5.412;2022-10-17T01:02:18;19.00;62.90
66190;DHT22;52992;52.084;5.412;2022-10-17T01:04:49;19.00;63.00
66190;DHT22;52992;52.084;5.412;2022-10-17T01:07:16;19.10;63.00
66190;DHT22;52992;52.084;5.412;2022-10-17T01:09:45;19.00;63.00
66190;DHT22;52992;52.084;5.412;2022-10-17T01:12:20;19.10;63.30
66190;DHT22;52992;52.084;5.412;2022-10-17T01:31:36;19.00;63.60
66190;DHT22;52992;52.084;5.412;2022-10-17T01:34:19;19.00;63.60
66190;DHT22;52992;52.084;5.412;2022-10-17T01:39:44;19.10;63.60
66190;DHT22;52992;52.084;5.412;2022-10-17T01:44:53;19.10;63.60
66190;DHT22;52992;52.084;5.412;2022-10-17T01:47:26;19.00;63.50
66190;DHT22;52992;52.084;5.412;2022-10-17T01:49:57;19.00;63.60
66190;DHT22;52992;52.084;5.412;2022-10-17T01:52:39;19.10;63.70
66190;DHT22;52992;52.084;5.412;2022-10-17T01:55:32;19.10;63.70
66190;DHT22;52992;52.084;5.412;2022-10-17T01:58:06;19.10;63.70
66190;DHT22;52992;52.084;5.412;2022-10-17T02:00:34;19.10;63.50
66190;DHT22;52992;52.084;5.412;2022-10-17T02:03:06;19.10;63.40
66190;DHT22;52992;52.084;5.412;2022-10-17T02:05:39;19.10;63.30
66190;DHT22;52992;52.084;5.412;2022-10-17T02:08:06;19.10;63.40
66190;DHT22;52992;52.084;5.412;2022-10-17T02:10:44;19.10;63.30
66190;DHT22;52992;52.084;5.412;2022-10-17T02:16:11;19.10;63.30
66190;DHT22;52992;52.084;5.412;2022-10-17T02:18:45;19.20;63.40
66190;DHT22;52992;52.084;5.412;2022-10-17T02:26:55;19.20;63.50
66190;DHT22;52992;52.084;5.412;2022-10-17T02:29:29;19.10;63.40
66190;DHT22;52992;52.084;5.412;2022-10-17T02:32:07;19.10;63.50
66190;DHT22;52992;52.084;5.412;2022-10-17T02:34:40;19.20;63.50
66190;DHT22;52992;52.084;5.412;2022-10-17T02:37:09;19.20;63.40
66190;DHT22;52992;52.084;5.412;2022-10-17T02:39:39;19.20;63.40
66190;DHT22;52992;52.084;5.412;2022-10-17T02:42:08;19.20;63.40
66190;DHT22;52992;52.084;5.412;2022-10-17T02:44:37;19.20;63.30
66190;DHT22;52992;52.084;5.412;2022-10-17T02:47:26;19.20;63.40
66190;DHT22;52992;52.084;5.412;2022-10-17T02:49:55;19.20;63.70
66190;DHT22;52992;52.084;5.412;2022-10-17T02:52:29;19.20;63.70
66190;DHT22;52992;52.084;5.412;2022-10-17T02:55:06;19.20;64.10
66190;DHT22;52992;52.084;5.412;2022-10-17T02:57:40;19.10;64.60
66190;DHT22;52992;52.084;5.412;2022-10-17T03:00:10;19.20;65.20
66190;DHT22;52992;52.084;5.412;2022-10-17T03:02:40;19.20;65.60
66190;DHT22;52992;52.084;5.412;2022-10-17T03:05:09;19.20;65.80
66190;DHT22;52992;52.084;5.412;2022-10-17T03:07:37;19.20;66.00
66190;DHT22;52992;52.084;5.412;2022-10-17T03:10:04;19.20;66.10
66190;DHT22;52992;52.084;5.412;2022-10-17T03:12:31;19.30;66.20
66190;DHT22;52992;52.084;5.412;2022-10-17T03:14:58;19.30;66.20
66190;DHT22;52992;52.084;5.412;2022-10-17T03:17:25;19.40;66.10
66190;DHT22;52992;52.084;5.412;2022-10-17T03:19:51;19.30;66.20
66190;DHT22;52992;52.084;5.412;2022-10-17T03:22:18;19.40;66.20
66190;DHT22;52992;52.084;5.412;2022-10-17T03:24:46;19.40;66.20
66190;DHT22;52992;52.084;5.412;2022-10-17T03:27:13;19.40;66.10
66190;DHT22;52992;52.084;5.412;2022-10-17T03:29:40;19.40;66.10
66190;DHT22;52992;52.084;5.412;2022-10-17T03:32:08;19.50;66.20
66190;DHT22;52992;52.084;5.412;2022-10-17T03:34:35;19.50;66.10
66190;DHT22;52992;52.084;5.412;2022-10-17T03:37:02;19.50;66.10
66190;DHT22;52992;52.084;5.412;2022-10-17T03:39:31;19.50;66.00
66190;DHT22;52992;52.084;5.412;2022-10-17T03:41:58;19.50;65.90
66190;DHT22;52992;52.084;5.412;2022-10-17T03:44:24;19.50;65.80
66190;DHT22;52992;52.084;5.412;2022-10-17T03:46:51;19.60;65.70
66190;DHT22;52992;52.084;5.412;2022-10-17T03:49:19;19.70;65.50
66190;DHT22;52992;52.084;5.412;2022-10-17T03:51:45;19.70;65.50
66190;DHT22;52992;52.084;5.412;2022-10-17T03:54:15;19.70;65.40
66190;DHT22;52992;52.084;5.412;2022-10-17T03:56:42;19.70;65.40
66190;DHT22;52992;52.084;5.412;2022-10-17T03:59:13;19.70;65.40
66190;DHT22;52992;52.084;5.412;2022-10-17T04:01:56;19.70;65.40
66190;DHT22;52992;52.084;5.412;2022-10-17T04:04:23;19.70;65.40
66190;DHT22;52992;52.084;5.412;2022-10-17T04:06:50;19.70;66.30
66190;DHT22;52992;52.084;5.412;2022-10-17T04:09:17;19.70;65.60
66190;DHT22;52992;52.084;5.412;2022-10-17T04:11:54;19.70;65.50
66190;DHT22;52992;52.084;5.412;2022-10-17T04:14:21;19.70;65.50
66190;DHT22;52992;52.084;5.412;2022-10-17T04:16:49;19.70;65.40
66190;DHT22;52992;52.084;5.412;2022-10-17T04:19:19;19.80;65.40
66190;DHT22;52992;52.084;5.412;2022-10-17T04:21:47;19.80;65.20
66190;DHT22;52992;52.084;5.412;2022-10-17T04:24:14;19.80;65.20
66190;DHT22;52992;52.084;5.412;2022-10-17T04:26:56;19.80;65.20
66190;DHT22;52992;52.084;5.412;2022-10-17T04:29:26;19.80;65.20
66190;DHT22;52992;52.084;5.412;2022-10-17T04:32:03;19.80;65.20
66190;DHT22;52992;52.084;5.412;2022-10-17T04:34:37;19.80;65.00
66190;DHT22;52992;52.084;5.412;2022-10-17T04:37:03;19.90;65.00
66190;DHT22;52992;52.084;5.412;2022-10-17T04:39:32;19.90;65.00
66190;DHT22;52992;52.084;5.412;2022-10-17T04:41:58;19.90;65.00
66190;DHT22;52992;52.084;5.412;2022-10-17T04:44:26;19.90;65.00
66190;DHT22;52992;52.084;5.412;2022-10-17T04:46:57;19.90;65.00
66190;DHT22;52992;52.084;5.412;2022-10-17T04:49:24;19.80;65.00
66190;DHT22;52992;52.084;5.412;2022-10-17T04:51:54;19.90;65.10
66190;DHT22;52992;52.084;5.412;2022-10-17T04:54:50;19.90;65.70
66190;DHT22;52992;52.084;5.412;2022-10-17T04:57:18;19.90;64.90
66190;DHT22;52992;52.084;5.412;2022-10-17T05:00:03;19.90;65.10
66190;DHT22;52992;52.084;5.412;2022-10-17T05:02:49;19.90;65.20
66190;DHT22;52992;52.084;5.412;2022-10-17T05:05:16;19.90;65.30
66190;DHT22;52992;52.084;5.412;2022-10-17T05:07:45;20.00;65.20
66190;DHT22;52992;52.084;5.412;2022-10-17T05:10:16;20.00;65.30
66190;DHT22;52992;52.084;5.412;2022-10-17T05:12:47;20.00;65.40
66190;DHT22;52992;52.084;5.412;2022-10-17T05:15:16;19.90;65.60
66190;DHT22;52992;52.084;5.412;2022-10-17T05:17:43;19.90;65.70
66190;DHT22;52992;52.084;5.412;2022-10-17T05:20:10;20.00;65.80
66190;DHT22;52992;52.084;5.412;2022-10-17T05:22:38;19.90;65.70
66190;DHT22;52992;52.084;5.412;2022-10-17T05:25:09;19.90;65.80
66190;DHT22;52992;52.084;5.412;2022-10-17T05:27:35;19.90;65.80
66190;DHT22;52992;52.084;5.412;2022-10-17T05:30:05;19.80;66.00
66190;DHT22;52992;52.084;5.412;2022-10-17T05:32:34;19.90;66.00
66190;DHT22;52992;52.084;5.412;2022-10-17T05:35:00;19.90;66.20
66190;DHT22;52992;52.084;5.412;2022-10-17T05:37:31;19.90;66.30
66190;DHT22;52992;52.084;5.412;2022-10-17T05:40:01;19.90;66.20
66190;DHT22;52992;52.084;5.412;2022-10-17T05:42:29;19.90;66.20
66190;DHT22;52992;52.084;5.412;2022-10-17T05:44:57;19.90;67.10
66190;DHT22;52992;52.084;5.412;2022-10-17T05:47:25;20.00;66.30
66190;DHT22;52992;52.084;5.412;2022-10-17T05:49:53;20.00;66.00
66190;DHT22;52992;52.084;5.412;2022-10-17T05:52:26;20.00;65.90
66190;DHT22;52992;52.084;5.412;2022-10-17T05:55:04;20.10;66.00
66190;DHT22;52992;52.084;5.412;2022-10-17T05:57:31;20.10;66.00
66190;DHT22;52992;52.084;5.412;2022-10-17T05:59:58;20.10;65.90
66190;DHT22;52992;52.084;5.412;2022-10-17T06:02:27;20.10;66.00
66190;DHT22;52992;52.084;5.412;2022-10-17T06:04:55;20.10;66.00
66190;DHT22;52992;52.084;5.412;2022-10-17T06:07:23;20.00;66.00
66190;DHT22;52992;52.084;5.412;2022-10-17T06:09:50;20.00;66.20
66190;DHT22;52992;52.084;5.412;2022-10-17T06:12:18;20.00;66.40
66190;DHT22;52992;52.084;5.412;2022-10-17T06:14:45;20.00;66.40
66190;DHT22;52992;52.084;5.412;2022-10-17T06:17:13;20.00;66.30
66190;DHT22;52992;52.084;5.412;2022-10-17T06:19:42;20.00;66.30
66190;DHT22;52992;52.084;5.412;2022-10-17T06:22:12;20.00;66.30
66190;DHT22;52992;52.084;5.412;2022-10-17T06:24:39;20.00;66.30
66190;DHT22;52992;52.084;5.412;2022-10-17T06:27:07;20.00;66.30
66190;DHT22;52992;52.084;5.412;2022-10-17T06:29:38;20.00;66.30
66190;DHT22;52992;52.084;5.412;2022-10-17T06:32:05;20.10;66.40
66190;DHT22;52992;52.084;5.412;2022-10-17T06:34:37;20.20;66.20
66190;DHT22;52992;52.084;5.412;2022-10-17T06:37:04;20.20;66.00
66190;DHT22;52992;52.084;5.412;2022-10-17T06:39:34;20.20;66.10
66190;DHT22;52992;52.084;5.412;2022-10-17T06:42:20;20.20;66.10
66190;DHT22;52992;52.084;5.412;2022-10-17T06:44:54;20.20;66.00
66190;DHT22;52992;52.084;5.412;2022-10-17T06:47:36;20.30;66.10
66190;DHT22;52992;52.084;5.412;2022-10-17T06:50:15;20.30;66.00
66190;DHT22;52992;52.084;5.412;2022-10-17T06:52:52;20.40;65.80
66190;DHT22;52992;52.084;5.412;2022-10-17T06:55:37;20.30;65.80
66190;DHT22;52992;52.084;5.412;2022-10-17T06:58:28;20.40;65.80
66190;DHT22;52992;52.084;5.412;2022-10-17T07:01:11;20.40;66.50
66190;DHT22;52992;52.084;5.412;2022-10-17T07:03:39;20.40;65.80
66190;DHT22;52992;52.084;5.412;2022-10-17T07:06:06;20.50;65.80
66190;DHT22;52992;52.084;5.412;2022-10-17T07:08:33;20.50;65.70
66190;DHT22;52992;52.084;5.412;2022-10-17T07:11:17;20.50;65.80
66190;DHT22;52992;52.084;5.412;2022-10-17T07:13:45;20.50;65.70
66190;DHT22;52992;52.084;5.412;2022-10-17T07:16:14;20.60;65.60
66190;DHT22;52992;52.084;5.412;2022-10-17T07:18:43;20.60;65.60
66190;DHT22;52992;52.084;5.412;2022-10-17T07:21:10;20.60;65.60
66190;DHT22;52992;52.084;5.412;2022-10-17T07:23:39;20.60;65.70
66190;DHT22;52992;52.084;5.412;2022-10-17T07:26:10;20.60;65.60
66190;DHT22;52992;52.084;5.412;2022-10-17T07:28:40;20.70;65.60
66190;DHT22;52992;52.084;5.412;2022-10-17T07:31:24;20.70;65.60
66190;DHT22;52992;52.084;5.412;2022-10-17T07:33:51;20.70;65.60
66190;DHT22;52992;52.084;5.412;2022-10-17T07:36:18;20.70;65.60
66190;DHT22;52992;52.084;5.412;2022-10-17T07:38:46;20.70;65.60
66190;DHT22;52992;52.084;5.412;2022-10-17T07:41:13;20.70;65.60
66190;DHT22;52992;52.084;5.412;2022-10-17T07:43:47;20.80;65.60
66190;DHT22;52992;52.084;5.412;2022-10-17T07:46:18;20.80;65.50
66190;DHT22;52992;52.084;5.412;2022-10-17T07:48:45;20.80;65.30
66190;DHT22;52992;52.084;5.412;2022-10-17T07:51:12;20.80;66.00
66190;DHT22;52992;52.084;5.412;2022-10-17T07:53:39;20.80;65.50
66190;DHT22;52992;52.084;5.412;2022-10-17T07:56:11;20.90;65.50
66190;DHT22;52992;52.084;5.412;2022-10-17T07:58:38;20.90;65.30
66190;DHT22;52992;52.084;5.412;2022-10-17T08:01:07;20.90;65.40
66190;DHT22;52992;52.084;5.412;2022-10-17T08:03:40;20.90;65.70
66190;DHT22;52992;52.084;5.412;2022-10-17T08:06:08;20.80;66.00
66190;DHT22;52992;52.084;5.412;2022-10-17T08:08:35;20.80;66.60
66190;DHT22;52992;52.084;5.412;2022-10-17T08:11:12;20.70;67.20
66190;DHT22;52992;52.084;5.412;2022-10-17T08:13:40;20.50;67.90
66190;DHT22;52992;52.084;5.412;2022-10-17T08:16:09;20.40;69.50
66190;DHT22;52992;52.084;5.412;2022-10-17T08:18:38;20.40;69.40
66190;DHT22;52992;52.084;5.412;2022-10-17T08:21:06;20.30;69.80
66190;DHT22;52992;52.084;5.412;2022-10-17T08:23:36;20.40;70.30
66190;DHT22;52992;52.084;5.412;2022-10-17T08:26:05;20.40;70.60
66190;DHT22;52992;52.084;5.412;2022-10-17T08:28:35;20.30;70.90
66190;DHT22;52992;52.084;5.412;2022-10-17T08:31:09;20.30;71.00
66190;DHT22;52992;52.084;5.412;2022-10-17T08:33:36;20.30;71.30
66190;DHT22;52992;52.084;5.412;2022-10-17T08:36:04;20.40;71.70
66190;DHT22;52992;52.084;5.412;2022-10-17T08:38:32;20.40;71.80
66190;DHT22;52992;52.084;5.412;2022-10-17T08:41:11;20.40;71.80
66190;DHT22;52992;52.084;5.412;2022-10-17T08:46:34;20.60;71.70
66190;DHT22;52992;52.084;5.412;2022-10-17T08:49:03;20.70;71.60
66190;DHT22;52992;52.084;5.412;2022-10-17T08:51:50;20.70;71.50
66190;DHT22;52992;52.084;5.412;2022-10-17T08:54:30;20.70;71.60
66190;DHT22;52992;52.084;5.412;2022-10-17T08:57:00;20.60;71.20
66190;DHT22;52992;52.084;5.412;2022-10-17T08:59:29;20.60;71.30
66190;DHT22;52992;52.084;5.412;2022-10-17T09:10:56;20.60;71.70
66190;DHT22;52992;52.084;5.412;2022-10-17T09:14:01;20.70;72.50
66190;DHT22;52992;52.084;5.412;2022-10-17T09:19:11;20.70;72.60
66190;DHT22;52992;52.084;5.412;2022-10-17T09:21:57;20.70;72.40
66190;DHT22;52992;52.084;5.412;2022-10-17T09:27:05;20.80;72.80
66190;DHT22;52992;52.084;5.412;2022-10-17T09:29:39;20.80;72.70
66190;DHT22;52992;52.084;5.412;2022-10-17T09:32:22;20.90;72.70
66190;DHT22;52992;52.084;5.412;2022-10-17T09:34:51;20.90;72.90
66190;DHT22;52992;52.084;5.412;2022-10-17T09:37:21;20.80;72.70
66190;DHT22;52992;52.084;5.412;2022-10-17T09:39:51;20.90;73.00
66190;DHT22;52992;52.084;5.412;2022-10-17T09:42:19;20.80;73.20
66190;DHT22;52992;52.084;5.412;2022-10-17T09:45:20;20.80;73.30
66190;DHT22;52992;52.084;5.412;2022-10-17T09:50:32;20.80;73.30
66190;DHT22;52992;52.084;5.412;2022-10-17T09:53:15;20.80;73.30
66190;DHT22;52992;52.084;5.412;2022-10-17T09:55:47;20.80;73.60
66190;DHT22;52992;52.084;5.412;2022-10-17T09:58:14;20.80;73.50
66190;DHT22;52992;52.084;5.412;2022-10-17T10:00:43;20.90;73.50
66190;DHT22;52992;52.084;5.412;2022-10-17T10:03:25;20.90;73.30
66190;DHT22;52992;52.084;5.412;2022-10-17T10:06:12;20.90;73.50
66190;DHT22;52992;52.084;5.412;2022-10-17T10:08:53;21.00;73.10
66190;DHT22;52992;52.084;5.412;2022-10-17T10:14:22;21.10;72.90
66190;DHT22;52992;52.084;5.412;2022-10-17T10:16:50;21.10;73.00
66190;DHT22;52992;52.084;5.412;2022-10-17T10:19:30;21.20;72.70
66190;DHT22;52992;52.084;5.412;2022-10-17T10:22:17;21.20;72.70
66190;DHT22;52992;52.084;5.412;2022-10-17T10:24:44;21.20;72.50
66190;DHT22;52992;52.084;5.412;2022-10-17T10:27:14;21.30;72.50
66190;DHT22;52992;52.084;5.412;2022-10-17T10:29:47;21.30;72.50
66190;DHT22;52992;52.084;5.412;2022-10-17T10:32:21;21.40;72.60
66190;DHT22;52992;52.084;5.412;2022-10-17T10:37:42;21.30;72.60
66190;DHT22;52992;52.084;5.412;2022-10-17T10:40:17;21.30;72.60
66190;DHT22;52992;52.084;5.412;2022-10-17T10:42:50;21.40;72.50
66190;DHT22;52992;52.084;5.412;2022-10-17T10:45:26;21.40;72.40
66190;DHT22;52992;52.084;5.412;2022-10-17T10:50:45;21.50;72.30
66190;DHT22;52992;52.084;5.412;2022-10-17T10:53:33;21.40;72.20
66190;DHT22;52992;52.084;5.412;2022-10-17T10:56:21;21.50;72.50
66190;DHT22;52992;52.084;5.412;2022-10-17T10:58:50;21.50;72.20
66190;DHT22;52992;52.084;5.412;2022-10-17T11:06:52;21.70;71.70
66190;DHT22;52992;52.084;5.412;2022-10-17T11:13:04;21.70;71.50
66190;DHT22;52992;52.084;5.412;2022-10-17T11:15:46;21.70;71.30
66190;DHT22;52992;52.084;5.412;2022-10-17T11:18:34;21.70;71.40
66190;DHT22;52992;52.084;5.412;2022-10-17T11:21:15;21.70;71.60
66190;DHT22;52992;52.084;5.412;2022-10-17T11:23:46;21.80;71.20
66190;DHT22;52992;52.084;5.412;2022-10-17T11:26:24;21.80;71.20
66190;DHT22;52992;52.084;5.412;2022-10-17T11:28:53;21.80;71.30
66190;DHT22;52992;52.084;5.412;2022-10-17T11:31:23;21.80;71.20
66190;DHT22;52992;52.084;5.412;2022-10-17T11:34:00;21.80;71.50
66190;DHT22;52992;52.084;5.412;2022-10-17T11:36:34;21.70;71.40
66190;DHT22;52992;52.084;5.412;2022-10-17T11:39:12;21.70;71.30
66190;DHT22;52992;52.084;5.412;2022-10-17T11:42:11;21.80;71.20
66190;DHT22;52992;52.084;5.412;2022-10-17T11:44:40;21.70;71.40
66190;DHT22;52992;52.084;5.412;2022-10-17T11:50:02;21.70;71.40
66190;DHT22;52992;52.084;5.412;2022-10-17T11:52:55;21.80;71.40
66190;DHT22;52992;52.084;5.412;2022-10-17T11:55:27;21.90;71.10
66190;DHT22;52992;52.084;5.412;2022-10-17T11:58:06;22.00;70.90
66190;DHT22;52992;52.084;5.412;2022-10-17T12:09:21;22.30;70.50
66190;DHT22;52992;52.084;5.412;2022-10-17T12:12:00;22.30;71.00
66190;DHT22;52992;52.084;5.412;2022-10-17T12:14:42;22.40;70.20
66190;DHT22;52992;52.084;5.412;2022-10-17T12:17:26;22.30;70.40
66190;DHT22;52992;52.084;5.412;2022-10-17T12:20:34;22.30;70.50
66190;DHT22;52992;52.084;5.412;2022-10-17T12:33:51;22.30;70.80
66190;DHT22;52992;52.084;5.412;2022-10-17T12:57:58;22.00;70.80
66190;DHT22;52992;52.084;5.412;2022-10-17T13:00:54;21.90;71.10
66190;DHT22;52992;52.084;5.412;2022-10-17T13:03:46;21.90;71.20
66190;DHT22;52992;52.084;5.412;2022-10-17T13:06:19;21.90;71.00
66190;DHT22;52992;52.084;5.412;2022-10-17T13:08:51;21.90;71.00
66190;DHT22;52992;52.084;5.412;2022-10-17T13:11:27;21.90;71.00
66190;DHT22;52992;52.084;5.412;2022-10-17T13:13:57;22.00;70.90
66190;DHT22;52992;52.084;5.412;2022-10-17T13:16:34;22.00;70.70
66190;DHT22;52992;52.084;5.412;2022-10-17T13:19:10;22.00;70.80
66190;DHT22;52992;52.084;5.412;2022-10-17T13:21:38;22.00;70.80
66190;DHT22;52992;52.084;5.412;2022-10-17T13:24:36;22.10;70.70
66190;DHT22;52992;52.084;5.412;2022-10-17T13:27:04;22.30;70.80
66190;DHT22;52992;52.084;5.412;2022-10-17T13:29:32;22.40;70.30
66190;DHT22;52992;52.084;5.412;2022-10-17T13:32:03;22.50;70.10
66190;DHT22;52992;52.084;5.412;2022-10-17T13:34:32;22.60;70.00
66190;DHT22;52992;52.084;5.412;2022-10-17T13:37:03;22.60;69.90
66190;DHT22;52992;52.084;5.412;2022-10-17T13:39:37;22.60;69.70
66190;DHT22;52992;52.084;5.412;2022-10-17T13:42:29;22.60;69.90
66190;DHT22;52992;52.084;5.412;2022-10-17T13:44:58;22.50;69.90
66190;DHT22;52992;52.084;5.412;2022-10-17T13:47:32;22.50;70.10
66190;DHT22;52992;52.084;5.412;2022-10-17T13:49:59;22.40;69.90
66190;DHT22;52992;52.084;5.412;2022-10-17T13:52:27;22.40;70.10
66190;DHT22;52992;52.084;5.412;2022-10-17T13:55:06;22.50;70.10
66190;DHT22;52992;52.084;5.412;2022-10-17T13:57:34;22.50;70.10
66190;DHT22;52992;52.084;5.412;2022-10-17T14:00:06;22.50;69.90
66190;DHT22;52992;52.084;5.412;2022-10-17T14:02:41;22.40;69.90
66190;DHT22;52992;52.084;5.412;2022-10-17T14:05:15;22.40;69.80
66190;DHT22;52992;52.084;5.412;2022-10-17T14:10:39;22.50;69.70
66190;DHT22;52992;52.084;5.412;2022-10-17T14:13:13;22.50;69.60
66190;DHT22;52992;52.084;5.412;2022-10-17T14:15:44;22.50;69.60
66190;DHT22;52992;52.084;5.412;2022-10-17T14:18:38;22.50;69.60
66190;DHT22;52992;52.084;5.412;2022-10-17T14:21:06;22.40;69.80
66190;DHT22;52992;52.084;5.412;2022-10-17T14:24:12;22.40;69.50
66190;DHT22;52992;52.084;5.412;2022-10-17T14:26:51;22.50;69.60
66190;DHT22;52992;52.084;5.412;2022-10-17T14:29:27;22.50;69.40
66190;DHT22;52992;52.084;5.412;2022-10-17T14:32:03;22.50;69.30
66190;DHT22;52992;52.084;5.412;2022-10-17T14:34:37;22.40;69.40
66190;DHT22;52992;52.084;5.412;2022-10-17T14:37:16;22.50;69.40
66190;DHT22;52992;52.084;5.412;2022-10-17T14:39:49;22.50;69.50
66190;DHT22;52992;52.084;5.412;2022-10-17T14:42:21;22.70;69.40
66190;DHT22;52992;52.084;5.412;2022-10-17T14:44:49;22.70;69.10
66190;DHT22;52992;52.084;5.412;2022-10-17T14:47:20;22.70;68.70
66190;DHT22;52992;52.084;5.412;2022-10-17T14:50:28;22.70;68.90
66190;DHT22;52992;52.084;5.412;2022-10-17T14:55:34;22.80;68.80
66190;DHT22;52992;52.084;5.412;2022-10-17T14:58:17;22.70;68.80
66190;DHT22;52992;52.084;5.412;2022-10-17T15:00:47;22.70;69.10
66190;DHT22;52992;52.084;5.412;2022-10-17T15:03:14;22.60;69.00
66190;DHT22;52992;52.084;5.412;2022-10-17T15:05:40;22.60;69.00
66190;DHT22;52992;52.084;5.412;2022-10-17T15:08:13;22.60;68.90
66190;DHT22;52992;52.084;5.412;2022-10-17T15:10:40;22.50;68.90
66190;DHT22;52992;52.084;5.412;2022-10-17T15:13:09;22.50;69.00
66190;DHT22;52992;52.084;5.412;2022-10-17T15:15:53;22.40;69.00
66190;DHT22;52992;52.084;5.412;2022-10-17T15:18:20;22.40;69.00
66190;DHT22;52992;52.084;5.412;2022-10-17T15:20:47;22.40;68.90
66190;DHT22;52992;52.084;5.412;2022-10-17T15:23:30;22.50;68.90
66190;DHT22;52992;52.084;5.412;2022-10-17T15:25:57;22.50;69.00
66190;DHT22;52992;52.084;5.412;2022-10-17T15:28:23;22.50;69.10
66190;DHT22;52992;52.084;5.412;2022-10-17T15:30:50;22.50;69.00
66190;DHT22;52992;52.084;5.412;2022-10-17T15:33:17;22.40;69.00
66190;DHT22;52992;52.084;5.412;2022-10-17T15:35:44;22.40;68.90
66190;DHT22;52992;52.084;5.412;2022-10-17T15:38:15;22.40;68.90
66190;DHT22;52992;52.084;5.412;2022-10-17T15:40:43;22.40;68.90
66190;DHT22;52992;52.084;5.412;2022-10-17T15:43:11;22.40;68.90
66190;DHT22;52992;52.084;5.412;2022-10-17T15:45:42;22.30;68.70
66190;DHT22;52992;52.084;5.412;2022-10-17T15:48:17;22.40;68.70
66190;DHT22;52992;52.084;5.412;2022-10-17T15:50:44;22.30;68.70
66190;DHT22;52992;52.084;5.412;2022-10-17T15:53:11;22.30;68.70
66190;DHT22;52992;52.084;5.412;2022-10-17T15:55:38;22.20;68.70
66190;DHT22;52992;52.084;5.412;2022-10-17T15:58:05;22.20;68.70
66190;DHT22;52992;52.084;5.412;2022-10-17T16:00:32;22.10;68.70
66190;DHT22;52992;52.084;5.412;2022-10-17T16:02:59;22.10;68.80
66190;DHT22;52992;52.084;5.412;2022-10-17T16:05:26;22.00;68.90
66190;DHT22;52992;52.084;5.412;2022-10-17T16:07:54;21.90;69.00
66190;DHT22;52992;52.084;5.412;2022-10-17T16:10:23;21.90;69.60
66190;DHT22;52992;52.084;5.412;2022-10-17T16:12:51;21.80;69.50
66190;DHT22;52992;52.084;5.412;2022-10-17T16:15:21;21.80;69.10
66190;DHT22;52992;52.084;5.412;2022-10-17T16:17:49;21.70;69.00
66190;DHT22;52992;52.084;5.412;2022-10-17T16:20:16;21.80;68.90
66190;DHT22;52992;52.084;5.412;2022-10-17T16:22:44;21.70;69.00
66190;DHT22;52992;52.084;5.412;2022-10-17T16:27:46;21.70;69.00
66190;DHT22;52992;52.084;5.412;2022-10-17T16:30:14;21.60;68.90
66190;DHT22;52992;52.084;5.412;2022-10-17T16:32:41;21.60;69.00
66190;DHT22;52992;52.084;5.412;2022-10-17T16:35:09;21.50;69.00
66190;DHT22;52992;52.084;5.412;2022-10-17T16:37:36;21.50;69.20
66190;DHT22;52992;52.084;5.412;2022-10-17T16:40:03;21.40;69.20
66190;DHT22;52992;52.084;5.412;2022-10-17T16:42:30;21.30;69.40
66190;DHT22;52992;52.084;5.412;2022-10-17T16:44:58;21.30;69.40
66190;DHT22;52992;52.084;5.412;2022-10-17T16:47:25;21.30;70.10
66190;DHT22;52992;52.084;5.412;2022-10-17T16:49:52;21.30;69.20
66190;DHT22;52992;52.084;5.412;2022-10-17T16:52:18;21.30;69.10
66190;DHT22;52992;52.084;5.412;2022-10-17T16:54:45;21.30;69.20
66190;DHT22;52992;52.084;5.412;2022-10-17T16:57:12;21.20;69.20
66190;DHT22;52992;52.084;5.412;2022-10-17T16:59:39;21.20;69.20
66190;DHT22;52992;52.084;5.412;2022-10-17T17:02:06;21.20;69.20
66190;DHT22;52992;52.084;5.412;2022-10-17T17:04:33;21.20;69.20
66190;DHT22;52992;52.084;5.412;2022-10-17T17:07:00;21.10;69.20
66190;DHT22;52992;52.084;5.412;2022-10-17T17:09:26;21.10;69.20
66190;DHT22;52992;52.084;5.412;2022-10-17T17:11:53;21.10;69.30
66190;DHT22;52992;52.084;5.412;2022-10-17T17:14:20;21.10;69.30
66190;DHT22;52992;52.084;5.412;2022-10-17T17:16:47;21.10;69.40
66190;DHT22;52992;52.084;5.412;2022-10-17T17:19:14;21.10;69.50
66190;DHT22;52992;52.084;5.412;2022-10-17T17:21:43;21.10;69.40
66190;DHT22;52992;52.084;5.412;2022-10-17T17:24:17;21.00;69.30
66190;DHT22;52992;52.084;5.412;2022-10-17T17:26:53;21.00;69.30
66190;DHT22;52992;52.084;5.412;2022-10-17T17:29:21;21.00;69.40
66190;DHT22;52992;52.084;5.412;2022-10-17T17:31:48;21.00;69.40
66190;DHT22;52992;52.084;5.412;2022-10-17T17:34:15;21.00;69.40
66190;DHT22;52992;52.084;5.412;2022-10-17T17:36:44;21.00;69.50
66190;DHT22;52992;52.084;5.412;2022-10-17T17:39:12;21.00;69.40
66190;DHT22;52992;52.084;5.412;2022-10-17T17:41:40;21.00;69.40
66190;DHT22;52992;52.084;5.412;2022-10-17T17:44:09;21.00;69.40
66190;DHT22;52992;52.084;5.412;2022-10-17T17:46:42;20.90;69.40
66190;DHT22;52992;52.084;5.412;2022-10-17T17:49:10;20.90;69.50
66190;DHT22;52992;52.084;5.412;2022-10-17T17:51:37;20.90;69.40
66190;DHT22;52992;52.084;5.412;2022-10-17T17:54:04;20.90;69.40
66190;DHT22;52992;52.084;5.412;2022-10-17T17:56:31;20.90;69.40
66190;DHT22;52992;52.084;5.412;2022-10-17T17:59:00;21.00;69.40
66190;DHT22;52992;52.084;5.412;2022-10-17T18:01:31;20.90;69.30